createdAt,value
2022-10-19T00:01:07.787Z,77.10
2022-10-19T00:03:36.512Z,77.30
2022-10-19T00:06:26.594Z,77.30
2022-10-19T00:08:56.096Z,77.40
2022-10-19T00:11:24.178Z,77.30
2022-10-19T00:13:53.001Z,77.30
2022-10-19T00:16:20.934Z,77.20
2022-10-19T00:18:48.126Z,77.20
2022-10-19T00:21:18.414Z,77.30
2022-10-19T00:23:46.591Z,77.30
2022-10-19T00:26:14.290Z,77.50
2022-10-19T00:28:42.749Z,77.50
2022-10-19T00:31:18.628Z,77.50
2022-10-19T00:33:47.082Z,77.60
2022-10-19T00:36:20.145Z,77.90
2022-10-19T00:38:48.189Z,78.30
2022-10-19T00:41:16.350Z,78.60
2022-10-19T00:44:03.316Z,78.70
2022-10-19T00:46:36.382Z,79.00
2022-10-19T00:49:18.018Z,79.40
2022-10-19T00:51:50.569Z,79.40
2022-10-19T00:54:19.157Z,79.60
2022-10-19T00:56:49.177Z,79.80
2022-10-19T00:59:20.237Z,80.10
2022-10-19T01:01:49.181Z,80.00
2022-10-19T01:04:18.352Z,80.00
2022-10-19T01:06:45.751Z,80.30
2022-10-19T01:09:12.916Z,80.40
2022-10-19T01:12:00.185Z,80.60
2022-10-19T01:15:01.749Z,80.90
2022-10-19T01:17:58.128Z,80.90
2022-10-19T01:20:57.669Z,80.80
2022-10-19T01:23:43.565Z,80.90
2022-10-19T01:26:19.729Z,80.70
2022-10-19T01:28:59.055Z,81.00
2022-10-19T01:31:30.553Z,80.80
2022-10-19T01:34:20.089Z,80.90
2022-10-19T01:37:12.988Z,81.50
2022-10-19T01:39:55.956Z,81.60
2022-10-19T01:42:24.019Z,82.10
2022-10-19T01:44:51.133Z,82.40
2022-10-19T01:47:31.860Z,82.10
2022-10-19T01:50:17.900Z,82.40
2022-10-19T01:52:45.164Z,83.10
2022-10-19T01:55:15.528Z,82.90
2022-10-19T01:57:49.197Z,83.00
2022-10-19T02:00:17.376Z,83.20
2022-10-19T02:02:48.699Z,83.20
2022-10-19T02:05:18.616Z,83.20
2022-10-19T02:07:49.768Z,83.10
2022-10-19T02:10:17.664Z,82.90
2022-10-19T02:12:45.479Z,82.70
2022-10-19T02:15:17.567Z,82.30
2022-10-19T02:17:47.436Z,82.10
2022-10-19T02:20:16.229Z,81.80
2022-10-19T02:22:43.630Z,81.40
2022-10-19T02:25:11.950Z,81.40
2022-10-19T02:27:42.175Z,81.10
2022-10-19T02:30:12.459Z,80.60
2022-10-19T02:32:39.649Z,80.70
2022-10-19T02:35:07.364Z,80.40
2022-10-19T02:37:37.551Z,80.00
2022-10-19T02:40:06.017Z,79.60
2022-10-19T02:42:38.852Z,79.40
2022-10-19T02:45:06.008Z,78.70
2022-10-19T02:47:42.226Z,78.20
2022-10-19T02:50:10.802Z,77.50
2022-10-19T02:52:39.471Z,77.20
2022-10-19T02:55:07.691Z,77.10
2022-10-19T02:57:35.245Z,76.80
2022-10-19T03:00:04.027Z,76.80
2022-10-19T03:02:31.223Z,76.80
2022-10-19T03:04:58.491Z,76.70
2022-10-19T03:07:27.709Z,76.90
2022-10-19T03:09:56.470Z,76.80
2022-10-19T03:12:23.610Z,76.50
2022-10-19T03:14:50.737Z,76.20
2022-10-19T03:17:18.073Z,76.40
2022-10-19T03:19:45.334Z,76.60
2022-10-19T03:22:15.029Z,76.60
2022-10-19T03:24:42.374Z,76.60
2022-10-19T03:27:09.748Z,76.70
2022-10-19T03:29:36.899Z,76.70
2022-10-19T03:32:04.354Z,76.80
2022-10-19T03:34:32.531Z,76.80
2022-10-19T03:36:59.623Z,77.10
2022-10-19T03:39:26.921Z,77.20
2022-10-19T03:41:54.081Z,77.40
2022-10-19T03:44:22.267Z,77.50
2022-10-19T03:46:49.487Z,76.90
2022-10-19T03:49:16.610Z,76.90
2022-10-19T03:51:43.834Z,76.90
2022-10-19T03:54:15.596Z,77.40
2022-10-19T03:56:43.284Z,77.50
2022-10-19T03:59:15.059Z,77.90
2022-10-19T04:01:45.219Z,77.80
2022-10-19T04:04:16.873Z,78.00
2022-10-19T04:06:48.168Z,78.30
2022-10-19T04:09:17.908Z,78.20
2022-10-19T04:11:45.637Z,78.00
2022-10-19T04:14:22.803Z,78.90
2022-10-19T04:16:59.688Z,78.80
2022-10-19T04:19:26.810Z,78.50
2022-10-19T04:21:54.069Z,78.90
2022-10-19T04:24:21.338Z,78.90
2022-10-19T04:26:50.574Z,78.80
2022-10-19T04:29:19.851Z,78.80
2022-10-19T04:31:50.007Z,79.20
2022-10-19T04:34:17.448Z,79.40
2022-10-19T04:36:44.788Z,79.50
2022-10-19T04:39:12.093Z,79.30
2022-10-19T04:41:39.811Z,79.40
2022-10-19T04:44:07.525Z,79.30
2022-10-19T04:46:35.454Z,79.50
2022-10-19T04:49:04.376Z,79.60
2022-10-19T04:51:31.598Z,79.80
2022-10-19T04:53:59.763Z,79.30
2022-10-19T04:56:28.213Z,79.20
2022-10-19T04:58:57.661Z,79.00
2022-10-19T05:01:26.741Z,79.10
2022-10-19T05:06:25.236Z,79.00
2022-10-19T05:08:52.679Z,79.10
2022-10-19T05:11:20.421Z,79.30
2022-10-19T05:13:48.045Z,79.00
2022-10-19T05:16:18.147Z,78.50
2022-10-19T05:18:53.216Z,78.80
2022-10-19T05:21:23.585Z,78.50
2022-10-19T05:23:55.521Z,78.80
2022-10-19T05:26:25.164Z,78.40
2022-10-19T05:28:57.091Z,78.30
2022-10-19T05:31:29.954Z,77.70
2022-10-19T05:33:57.493Z,77.10
2022-10-19T05:36:26.836Z,76.80
2022-10-19T05:38:56.794Z,76.70
2022-10-19T05:41:25.956Z,76.20
2022-10-19T05:43:55.214Z,76.40
2022-10-19T05:46:23.164Z,76.20
2022-10-19T05:48:50.922Z,75.60
2022-10-19T05:51:22.707Z,75.70
2022-10-19T05:53:50.601Z,75.00
2022-10-19T05:56:20.137Z,74.70
2022-10-19T05:58:51.894Z,74.50
2022-10-19T06:01:19.645Z,74.00
2022-10-19T06:03:50.206Z,73.70
2022-10-19T06:06:17.502Z,73.40
2022-10-19T06:08:45.435Z,73.30
2022-10-19T06:11:15.732Z,73.20
2022-10-19T06:13:44.638Z,72.80
2022-10-19T06:16:14.553Z,71.90
2022-10-19T06:18:43.209Z,71.80
2022-10-19T06:21:16.443Z,71.50
2022-10-19T06:23:44.028Z,71.40
2022-10-19T06:26:13.637Z,70.80
2022-10-19T06:28:43.382Z,70.60
2022-10-19T06:31:12.815Z,69.70
2022-10-19T06:33:43.177Z,69.30
2022-10-19T06:36:16.077Z,68.90
2022-10-19T06:38:43.669Z,67.70
2022-10-19T06:41:13.909Z,67.00
2022-10-19T06:43:43.693Z,66.60
2022-10-19T06:46:15.656Z,66.40
2022-10-19T06:48:43.685Z,65.70
2022-10-19T06:51:11.999Z,65.10
2022-10-19T06:53:39.207Z,64.70
2022-10-19T06:56:07.213Z,64.70
2022-10-19T06:58:38.809Z,64.10
2022-10-19T07:01:08.072Z,64.00
2022-10-19T07:03:36.717Z,63.90
2022-10-19T07:06:09.754Z,62.90
2022-10-19T07:08:38.617Z,62.70
2022-10-19T07:11:08.961Z,62.00
2022-10-19T07:13:36.612Z,61.70
2022-10-19T07:16:15.894Z,61.10
2022-10-19T07:18:47.285Z,61.50
2022-10-19T07:21:22.705Z,61.90
2022-10-19T07:23:50.554Z,62.30
2022-10-19T07:26:28.502Z,62.40
2022-10-19T07:28:58.743Z,62.60
2022-10-19T07:31:27.680Z,61.60
2022-10-19T07:34:00.092Z,61.10
2022-10-19T07:36:35.981Z,61.00
2022-10-19T07:39:05.573Z,60.40
2022-10-19T07:41:34.715Z,60.20
2022-10-19T07:44:02.889Z,60.10
2022-10-19T07:46:33.951Z,60.20
2022-10-19T07:49:01.863Z,60.30
2022-10-19T07:54:01.247Z,60.20
2022-10-19T07:56:29.180Z,60.10
2022-10-19T07:58:57.686Z,60.20
2022-10-19T08:01:29.277Z,59.00
2022-10-19T08:04:49.067Z,59.60
2022-10-19T08:06:49.834Z,58.20
2022-10-19T08:09:40.088Z,57.50
2022-10-19T08:12:06.354Z,57.10
2022-10-19T08:14:33.624Z,56.40
2022-10-19T08:17:01.325Z,56.70
2022-10-19T08:19:28.480Z,56.60
2022-10-19T08:21:55.649Z,56.60
2022-10-19T08:24:22.952Z,56.20
2022-10-19T08:26:51.522Z,56.20
2022-10-19T08:29:27.810Z,56.00
2022-10-19T08:31:58.009Z,55.80
2022-10-19T08:34:25.607Z,55.70
2022-10-19T08:36:52.909Z,54.30
2022-10-19T08:39:20.295Z,54.60
2022-10-19T08:41:57.401Z,54.20
2022-10-19T08:44:33.366Z,53.30
2022-10-19T08:47:23.573Z,53.00
2022-10-19T08:49:51.297Z,52.30
2022-10-19T08:52:46.309Z,52.10
2022-10-19T08:55:20.443Z,52.30
2022-10-19T08:58:39.857Z,51.60
2022-10-19T09:01:36.847Z,51.30
2022-10-19T09:04:13.269Z,50.30
2022-10-19T09:07:11.719Z,49.60
2022-10-19T09:09:44.379Z,49.60
2022-10-19T09:12:16.795Z,49.40
2022-10-19T09:15:07.339Z,49.50
2022-10-19T09:17:34.918Z,49.90
2022-10-19T09:20:31.232Z,49.00
2022-10-19T09:23:26.678Z,49.10
2022-10-19T09:25:55.940Z,49.10
2022-10-19T09:28:50.273Z,49.20
2022-10-19T09:31:47.219Z,48.60
2022-10-19T09:34:22.450Z,48.60
2022-10-19T09:36:58.378Z,48.30
2022-10-19T09:39:29.452Z,47.50
2022-10-19T09:41:58.084Z,46.20
2022-10-19T09:44:26.465Z,47.00
2022-10-19T09:46:59.790Z,46.60
2022-10-19T09:49:48.969Z,46.90
2022-10-19T09:52:37.351Z,46.70
2022-10-19T09:55:13.866Z,47.20
2022-10-19T09:57:54.370Z,47.10
2022-10-19T10:00:32.210Z,46.30
2022-10-19T10:02:59.630Z,46.30
2022-10-19T10:05:38.865Z,46.00
2022-10-19T10:08:15.817Z,46.10
2022-10-19T10:10:53.340Z,46.60
2022-10-19T10:13:24.156Z,45.60
2022-10-19T10:16:03.932Z,45.20
2022-10-19T10:18:31.144Z,44.70
2022-10-19T10:21:06.892Z,45.00
2022-10-19T10:23:36.711Z,44.70
2022-10-19T10:26:06.323Z,43.30
2022-10-19T10:28:33.839Z,44.40
2022-10-19T10:31:03.590Z,43.20
2022-10-19T10:33:44.056Z,43.40
2022-10-19T10:36:12.662Z,43.60
2022-10-19T10:38:47.186Z,44.10
2022-10-19T10:41:23.375Z,43.70
2022-10-19T10:43:57.538Z,42.60
2022-10-19T10:46:32.999Z,42.20
2022-10-19T10:49:08.259Z,42.00
2022-10-19T10:51:49.321Z,39.90
2022-10-19T10:54:31.667Z,38.90
2022-10-19T11:01:14.814Z,41.50
2022-10-19T11:03:55.968Z,41.60
2022-10-19T11:06:59.295Z,40.60
2022-10-19T11:12:45.712Z,40.50
2022-10-19T11:18:31.555Z,40.30
2022-10-19T11:21:15.613Z,40.40
2022-10-19T11:24:16.822Z,40.80
2022-10-19T11:26:54.054Z,40.30
2022-10-19T11:29:43.574Z,41.30
2022-10-19T11:32:30.566Z,40.80
2022-10-19T11:35:19.937Z,40.00
2022-10-19T11:38:00.593Z,39.30
2022-10-19T11:41:18.182Z,39.60
2022-10-19T11:44:20.717Z,40.70
2022-10-19T11:47:16.126Z,40.20
2022-10-19T11:49:55.360Z,41.10
2022-10-19T11:52:39.925Z,40.60
2022-10-19T11:55:27.250Z,41.00
2022-10-19T11:58:08.120Z,40.50
2022-10-19T12:00:54.643Z,39.70
2022-10-19T12:03:47.480Z,41.00
2022-10-19T12:06:29.112Z,40.70
2022-10-19T12:09:15.876Z,41.20
2022-10-19T12:12:31.692Z,41.00
2022-10-19T12:15:12.614Z,41.30
2022-10-19T12:17:44.137Z,41.20
2022-10-19T12:20:32.441Z,41.00
2022-10-19T12:23:00.742Z,41.20
2022-10-19T12:25:28.804Z,41.80
2022-10-19T12:28:05.973Z,40.40
2022-10-19T12:30:37.165Z,40.70
2022-10-19T12:33:35.771Z,41.30
2022-10-19T12:36:21.994Z,40.80
2022-10-19T12:39:28.824Z,40.20
2022-10-19T12:41:56.153Z,41.30
2022-10-19T12:44:52.722Z,42.40
2022-10-19T12:47:26.227Z,43.00
2022-10-19T12:49:57.833Z,43.20
2022-10-19T12:52:52.997Z,42.10
2022-10-19T12:55:27.049Z,42.40
2022-10-19T12:58:01.196Z,43.30
2022-10-19T13:00:37.182Z,43.70
2022-10-19T13:03:17.948Z,42.50
2022-10-19T13:06:00.630Z,43.30
2022-10-19T13:08:32.061Z,44.70
2022-10-19T13:11:17.399Z,45.80
2022-10-19T13:13:55.370Z,48.30
2022-10-19T13:16:56.690Z,50.00
2022-10-19T13:19:24.758Z,52.90
2022-10-19T13:22:01.328Z,55.30
2022-10-19T13:24:30.901Z,56.00
2022-10-19T13:27:04.017Z,57.20
2022-10-19T13:29:44.607Z,57.30
2022-10-19T13:32:41.452Z,58.20
2022-10-19T13:35:35.694Z,58.60
2022-10-19T13:38:26.533Z,58.80
2022-10-19T13:40:56.838Z,59.40
2022-10-19T13:43:36.128Z,59.80
2022-10-19T13:46:12.168Z,60.50
2022-10-19T13:48:57.378Z,60.80
2022-10-19T13:52:11.511Z,61.60
2022-10-19T13:55:02.965Z,62.70
2022-10-19T13:57:59.195Z,63.40
2022-10-19T14:00:46.108Z,65.60
2022-10-19T14:03:39.317Z,65.80
2022-10-19T14:06:11.137Z,65.70
2022-10-19T14:09:05.866Z,65.50
2022-10-19T14:11:43.592Z,65.30
2022-10-19T14:14:11.641Z,65.90
2022-10-19T14:16:52.559Z,65.80
2022-10-19T14:19:45.609Z,66.00
2022-10-19T14:22:24.745Z,66.70
2022-10-19T14:24:53.056Z,66.80
2022-10-19T14:27:24.260Z,66.90
2022-10-19T14:29:58.935Z,67.30
2022-10-19T14:32:31.952Z,67.60
2022-10-19T14:35:05.891Z,68.80
2022-10-19T14:37:33.686Z,69.30
2022-10-19T14:40:03.545Z,69.40
2022-10-19T14:42:39.638Z,69.20
2022-10-19T14:45:14.828Z,69.30
2022-10-19T14:48:19.867Z,69.20
2022-10-19T14:51:02.656Z,68.80
2022-10-19T14:53:43.641Z,69.00
2022-10-19T14:56:29.111Z,69.10
2022-10-19T14:59:03.848Z,69.70
2022-10-19T15:01:40.038Z,69.60
2022-10-19T15:04:09.516Z,69.70
2022-10-19T15:06:46.769Z,69.50
2022-10-19T15:09:37.445Z,70.00
2022-10-19T15:12:18.160Z,70.20
2022-10-19T15:14:47.182Z,70.60
2022-10-19T15:17:57.183Z,70.60
2022-10-19T15:20:55.224Z,70.70
2022-10-19T15:23:41.116Z,71.20
2022-10-19T15:26:28.336Z,71.20
2022-10-19T15:29:13.054Z,71.10
2022-10-19T15:31:44.778Z,71.60
2022-10-19T15:34:26.333Z,72.20
2022-10-19T15:37:01.310Z,72.70
2022-10-19T15:39:43.412Z,72.90
2022-10-19T15:42:35.739Z,73.50
2022-10-19T15:45:11.045Z,74.30
2022-10-19T15:47:41.810Z,74.70
2022-10-19T15:50:36.921Z,75.00
2022-10-19T15:53:05.031Z,75.70
2022-10-19T15:55:37.130Z,76.20
2022-10-19T15:58:04.990Z,77.10
2022-10-19T16:00:33.022Z,77.60
2022-10-19T16:03:00.351Z,77.80
2022-10-19T16:05:27.565Z,78.20
2022-10-19T16:07:55.865Z,78.40
2022-10-19T16:10:27.555Z,78.40
2022-10-19T16:13:03.805Z,78.70
2022-10-19T16:15:31.630Z,79.00
2022-10-19T16:18:02.598Z,79.40
2022-10-19T16:20:30.325Z,79.70
2022-10-19T16:22:59.830Z,80.10
2022-10-19T16:25:27.005Z,80.50
2022-10-19T16:27:54.335Z,80.70
2022-10-19T16:30:22.131Z,81.30
2022-10-19T16:32:49.930Z,81.50
2022-10-19T16:35:17.690Z,81.90
2022-10-19T16:37:44.829Z,82.30
2022-10-19T16:40:24.866Z,82.30
2022-10-19T16:42:55.989Z,82.60
2022-10-19T16:45:29.060Z,82.90
2022-10-19T16:48:01.691Z,83.10
2022-10-19T16:50:34.564Z,83.20
2022-10-19T16:53:10.762Z,83.10
2022-10-19T16:55:45.197Z,83.60
2022-10-19T16:58:14.343Z,83.80
2022-10-19T17:00:41.557Z,84.10
2022-10-19T17:03:14.561Z,84.80
2022-10-19T17:05:46.586Z,85.60
2022-10-19T17:08:15.204Z,85.60
2022-10-19T17:10:42.963Z,85.40
2022-10-19T17:13:15.787Z,85.30
2022-10-19T17:15:44.453Z,85.60
2022-10-19T17:18:12.089Z,86.30
2022-10-19T17:20:49.620Z,86.60
2022-10-19T17:23:17.880Z,86.40
2022-10-19T17:25:50.623Z,86.20
2022-10-19T17:28:18.357Z,86.00
2022-10-19T17:30:47.668Z,85.90
2022-10-19T17:33:14.948Z,85.80
2022-10-19T17:35:42.435Z,85.70
2022-10-19T17:38:11.079Z,85.70
2022-10-19T17:40:40.718Z,85.60
2022-10-19T17:43:09.657Z,85.20
2022-10-19T17:45:38.869Z,85.10
2022-10-19T17:48:09.276Z,85.10
2022-10-19T17:50:39.334Z,84.90
2022-10-19T17:53:10.782Z,84.90
2022-10-19T17:55:39.894Z,84.20
2022-10-19T17:58:09.995Z,84.20
2022-10-19T18:00:39.718Z,84.00
2022-10-19T18:03:08.172Z,83.60
2022-10-19T18:05:37.714Z,83.70
2022-10-19T18:08:22.805Z,83.00
2022-10-19T18:10:56.476Z,83.20
2022-10-19T18:13:23.785Z,83.20
2022-10-19T18:15:51.246Z,83.60
2022-10-19T18:18:19.552Z,83.50
2022-10-19T18:20:48.566Z,83.50
2022-10-19T18:23:17.414Z,83.30
2022-10-19T18:25:53.800Z,83.40
2022-10-19T18:28:22.413Z,83.70
2022-10-19T18:30:49.812Z,84.10
2022-10-19T18:33:17.677Z,84.30
2022-10-19T18:35:46.785Z,84.20
2022-10-19T18:38:14.290Z,84.00
2022-10-19T18:40:45.827Z,83.90
2022-10-19T18:43:14.435Z,83.80
2022-10-19T18:46:05.388Z,83.30
2022-10-19T18:48:40.011Z,83.20
2022-10-19T18:51:08.766Z,83.00
2022-10-19T18:53:42.426Z,83.00
2022-10-19T18:56:12.078Z,83.20
2022-10-19T18:58:43.903Z,83.30
2022-10-19T19:01:17.426Z,82.50
2022-10-19T19:03:50.005Z,82.00
2022-10-19T19:06:38.486Z,82.20
2022-10-19T19:09:09.424Z,81.40
2022-10-19T19:11:39.457Z,80.60
2022-10-19T19:14:16.004Z,80.00
2022-10-19T19:16:46.841Z,78.90
2022-10-19T19:19:19.915Z,78.50
2022-10-19T19:21:51.587Z,78.30
2022-10-19T19:24:29.392Z,78.10
2022-10-19T19:26:58.426Z,77.80
2022-10-19T19:29:26.096Z,77.80
2022-10-19T19:31:53.914Z,77.90
2022-10-19T19:34:21.482Z,78.00
2022-10-19T19:36:49.262Z,78.40
2022-10-19T19:39:24.053Z,78.60
2022-10-19T19:41:51.776Z,78.60
2022-10-19T19:44:20.094Z,79.10
2022-10-19T19:46:47.651Z,78.80
2022-10-19T19:49:18.213Z,78.70
2022-10-19T19:51:45.896Z,78.90
2022-10-19T19:54:13.323Z,79.10
2022-10-19T19:56:42.536Z,79.30
2022-10-19T19:59:12.051Z,78.80
2022-10-19T20:01:45.160Z,78.40
2022-10-19T20:04:13.250Z,78.10
2022-10-19T20:06:42.319Z,77.40
2022-10-19T20:09:13.718Z,77.30
2022-10-19T20:11:43.020Z,77.40
2022-10-19T20:14:11.851Z,77.10
2022-10-19T20:16:39.504Z,77.00
2022-10-19T20:19:12.567Z,76.80
2022-10-19T20:21:43.108Z,76.80
2022-10-19T20:24:16.498Z,77.00
2022-10-19T20:26:44.148Z,76.80
2022-10-19T20:29:11.943Z,76.90
2022-10-19T20:31:40.656Z,77.10
2022-10-19T20:34:11.670Z,77.30
2022-10-19T20:36:40.357Z,77.60
2022-10-19T20:39:07.829Z,77.50
2022-10-19T20:41:35.672Z,77.80
2022-10-19T20:44:03.164Z,78.10
2022-10-19T20:46:30.906Z,78.40
2022-10-19T20:49:00.199Z,78.70
2022-10-19T20:51:36.692Z,79.00
2022-10-19T20:54:06.818Z,79.60
2022-10-19T20:56:37.477Z,79.70
2022-10-19T20:59:34.651Z,79.90
2022-10-19T21:02:02.023Z,79.60
2022-10-19T21:04:29.368Z,79.80
2022-10-19T21:06:57.486Z,80.00
2022-10-19T21:09:26.310Z,80.20
2022-10-19T21:11:53.531Z,80.30
2022-10-19T21:14:27.006Z,80.50
2022-10-19T21:16:57.781Z,80.60
2022-10-19T21:19:26.877Z,80.80
2022-10-19T21:21:57.360Z,80.90
2022-10-19T21:24:27.829Z,81.20
2022-10-19T21:26:55.579Z,81.50
2022-10-19T21:29:22.992Z,81.60
2022-10-19T21:31:53.970Z,81.70
2022-10-19T21:34:27.791Z,81.90
2022-10-19T21:36:55.754Z,81.90
2022-10-19T21:39:23.116Z,82.20
2022-10-19T21:41:50.816Z,82.30
2022-10-19T21:44:19.561Z,82.60
2022-10-19T21:46:54.128Z,82.60
2022-10-19T21:49:21.518Z,82.80
2022-10-19T21:51:52.317Z,82.90
2022-10-19T21:54:30.315Z,83.10
2022-10-19T21:57:00.468Z,83.20
2022-10-19T21:59:29.246Z,83.50
2022-10-19T22:01:57.277Z,83.80
2022-10-19T22:04:26.317Z,83.90
2022-10-19T22:06:56.997Z,84.10
2022-10-19T22:09:29.717Z,84.20
2022-10-19T22:11:59.077Z,84.40
2022-10-19T22:14:36.181Z,84.00
2022-10-19T22:17:03.930Z,84.20
2022-10-19T22:19:31.026Z,84.10
2022-10-19T22:21:58.284Z,84.20
2022-10-19T22:24:26.286Z,84.30
2022-10-19T22:26:53.740Z,84.30
2022-10-19T22:29:21.054Z,84.50
2022-10-19T22:31:48.429Z,84.50
2022-10-19T22:34:19.642Z,84.20
2022-10-19T22:36:47.064Z,83.90
2022-10-19T22:39:17.843Z,83.70
2022-10-19T22:42:41.953Z,83.50
2022-10-19T22:46:24.371Z,83.60
2022-10-19T22:50:06.801Z,83.60
2022-10-19T22:52:59.911Z,83.30
2022-10-19T22:55:27.452Z,83.50
2022-10-19T22:57:55.045Z,83.60
2022-10-19T23:00:27.769Z,83.70
2022-10-19T23:02:57.619Z,83.80
2022-10-19T23:05:26.244Z,83.90
2022-10-19T23:07:55.000Z,84.10
2022-10-19T23:10:22.770Z,84.00
2022-10-19T23:12:56.068Z,83.60
2022-10-19T23:15:23.373Z,83.20
2022-10-19T23:17:50.760Z,83.20
2022-10-19T23:20:19.427Z,83.30
2022-10-19T23:22:46.670Z,83.10
2022-10-19T23:25:14.000Z,83.10
2022-10-19T23:27:41.317Z,83.10
2022-10-19T23:30:08.861Z,83.00
2022-10-19T23:32:36.245Z,83.20
2022-10-19T23:35:03.517Z,83.50
2022-10-19T23:37:30.964Z,83.50
2022-10-19T23:39:58.103Z,83.50
2022-10-19T23:42:25.449Z,83.80
2022-10-19T23:44:52.715Z,83.90
2022-10-19T23:47:20.051Z,84.10
2022-10-19T23:49:47.334Z,84.10
2022-10-19T23:52:14.621Z,84.20
2022-10-19T23:54:42.517Z,83.80
2022-10-19T23:57:09.801Z,83.40
2022-10-19T23:59:37.007Z,83.50
